sensor_id;sensor_type;location;lat;lon;timestamp;pressure;altitude;pressure_sealevel;temperature;humidity
53262;BME280;39658;51.090;-1.786;2022-08-06T00:00:16;102136.28;;;12.18;65.30
53262;BME280;39658;51.090;-1.786;2022-08-06T00:02:43;102130.88;;;12.09;65.32
53262;BME280;39658;51.090;-1.786;2022-08-06T00:05:10;102137.97;;;12.19;64.70
53262;BME280;39658;51.090;-1.786;2022-08-06T00:07:37;102139.28;;;12.04;65.00
53262;BME280;39658;51.090;-1.786;2022-08-06T00:10:05;102130.72;;;11.89;65.48
53262;BME280;39658;51.090;-1.786;2022-08-06T00:12:33;102132.94;;;11.84;66.34
53262;BME280;39658;51.090;-1.786;2022-08-06T00:15:00;102131.72;;;11.77;66.05
53262;BME280;39658;51.090;-1.786;2022-08-06T00:17:28;102132.69;;;11.87;65.64
53262;BME280;39658;51.090;-1.786;2022-08-06T00:19:55;102131.63;;;11.79;66.18
53262;BME280;39658;51.090;-1.786;2022-08-06T00:22:22;102134.31;;;11.68;66.99
53262;BME280;39658;51.090;-1.786;2022-08-06T00:24:49;102147.19;;;11.63;66.77
53262;BME280;39658;51.090;-1.786;2022-08-06T00:27:15;102142.16;;;11.37;68.10
53262;BME280;39658;51.090;-1.786;2022-08-06T00:29:42;102146.28;;;11.19;68.44
53262;BME280;39658;51.090;-1.786;2022-08-06T00:32:09;102148.47;;;11.14;69.01
53262;BME280;39658;51.090;-1.786;2022-08-06T00:34:37;102146.16;;;11.20;68.72
53262;BME280;39658;51.090;-1.786;2022-08-06T00:37:04;102150.44;;;11.23;67.95
53262;BME280;39658;51.090;-1.786;2022-08-06T00:39:31;102153.44;;;11.18;68.45
53262;BME280;39658;51.090;-1.786;2022-08-06T00:41:58;102149.47;;;11.24;67.51
53262;BME280;39658;51.090;-1.786;2022-08-06T00:44:25;102152.72;;;11.16;68.60
53262;BME280;39658;51.090;-1.786;2022-08-06T00:46:51;102146.53;;;11.16;68.37
53262;BME280;39658;51.090;-1.786;2022-08-06T00:49:18;102150.44;;;11.23;68.48
53262;BME280;39658;51.090;-1.786;2022-08-06T00:51:47;102148.81;;;11.20;67.65
53262;BME280;39658;51.090;-1.786;2022-08-06T00:54:14;102147.13;;;11.19;68.33
53262;BME280;39658;51.090;-1.786;2022-08-06T00:56:40;102148.22;;;11.28;67.12
53262;BME280;39658;51.090;-1.786;2022-08-06T00:59:07;102155.97;;;11.31;67.04
53262;BME280;39658;51.090;-1.786;2022-08-06T01:01:34;102150.78;;;11.18;67.46
53262;BME280;39658;51.090;-1.786;2022-08-06T01:04:01;102153.94;;;11.12;67.55
53262;BME280;39658;51.090;-1.786;2022-08-06T01:06:28;102156.84;;;11.09;67.52
53262;BME280;39658;51.090;-1.786;2022-08-06T01:08:56;102153.84;;;10.91;68.70
53262;BME280;39658;51.090;-1.786;2022-08-06T01:11:23;102157.34;;;10.92;68.44
53262;BME280;39658;51.090;-1.786;2022-08-06T01:13:50;102147.91;;;10.88;68.44
53262;BME280;39658;51.090;-1.786;2022-08-06T01:16:22;102150.22;;;10.81;69.24
53262;BME280;39658;51.090;-1.786;2022-08-06T01:18:55;102148.41;;;10.82;69.02
53262;BME280;39658;51.090;-1.786;2022-08-06T01:21:40;102157.25;;;10.82;68.86
53262;BME280;39658;51.090;-1.786;2022-08-06T01:24:42;102160.97;;;10.91;67.96
53262;BME280;39658;51.090;-1.786;2022-08-06T01:27:38;102156.75;;;10.88;68.80
53262;BME280;39658;51.090;-1.786;2022-08-06T01:30:08;102152.28;;;10.89;68.52
53262;BME280;39658;51.090;-1.786;2022-08-06T01:32:40;102161.56;;;11.06;67.85
53262;BME280;39658;51.090;-1.786;2022-08-06T01:35:14;102155.41;;;10.94;68.06
53262;BME280;39658;51.090;-1.786;2022-08-06T01:37:46;102165.69;;;11.10;67.52
53262;BME280;39658;51.090;-1.786;2022-08-06T01:40:19;102164.00;;;11.09;67.83
53262;BME280;39658;51.090;-1.786;2022-08-06T01:42:49;102164.47;;;10.80;68.57
53262;BME280;39658;51.090;-1.786;2022-08-06T01:45:19;102166.66;;;10.75;69.01
53262;BME280;39658;51.090;-1.786;2022-08-06T01:47:51;102170.16;;;10.76;68.21
53262;BME280;39658;51.090;-1.786;2022-08-06T01:50:22;102166.88;;;10.61;68.61
53262;BME280;39658;51.090;-1.786;2022-08-06T01:52:51;102175.00;;;10.59;69.33
53262;BME280;39658;51.090;-1.786;2022-08-06T01:55:20;102167.84;;;10.71;69.18
53262;BME280;39658;51.090;-1.786;2022-08-06T01:57:51;102168.09;;;10.68;69.37
53262;BME280;39658;51.090;-1.786;2022-08-06T02:00:19;102170.50;;;10.60;68.99
53262;BME280;39658;51.090;-1.786;2022-08-06T02:02:48;102168.47;;;10.63;68.75
53262;BME280;39658;51.090;-1.786;2022-08-06T02:05:19;102165.81;;;10.75;67.99
53262;BME280;39658;51.090;-1.786;2022-08-06T02:07:50;102165.81;;;10.63;69.17
53262;BME280;39658;51.090;-1.786;2022-08-06T02:10:21;102169.06;;;10.78;67.52
53262;BME280;39658;51.090;-1.786;2022-08-06T02:12:50;102166.53;;;10.77;67.74
53262;BME280;39658;51.090;-1.786;2022-08-06T02:15:20;102164.22;;;10.61;68.95
53262;BME280;39658;51.090;-1.786;2022-08-06T02:17:51;102160.00;;;10.58;69.56
53262;BME280;39658;51.090;-1.786;2022-08-06T02:20:28;102166.53;;;10.54;69.12
53262;BME280;39658;51.090;-1.786;2022-08-06T02:22:59;102163.00;;;10.65;69.11
53262;BME280;39658;51.090;-1.786;2022-08-06T02:25:29;102156.59;;;10.67;69.31
53262;BME280;39658;51.090;-1.786;2022-08-06T02:28:00;102165.56;;;10.66;68.78
53262;BME280;39658;51.090;-1.786;2022-08-06T02:30:31;102156.47;;;10.80;68.65
53262;BME280;39658;51.090;-1.786;2022-08-06T02:32:58;102166.28;;;10.68;68.95
53262;BME280;39658;51.090;-1.786;2022-08-06T02:35:26;102166.53;;;10.54;68.76
53262;BME280;39658;51.090;-1.786;2022-08-06T02:37:59;102166.72;;;10.40;69.13
53262;BME280;39658;51.090;-1.786;2022-08-06T02:40:34;102167.91;;;10.25;70.19
53262;BME280;39658;51.090;-1.786;2022-08-06T02:43:04;102174.06;;;10.25;70.36
53262;BME280;39658;51.090;-1.786;2022-08-06T02:45:36;102171.16;;;10.28;69.71
53262;BME280;39658;51.090;-1.786;2022-08-06T02:48:07;102173.56;;;10.20;70.43
53262;BME280;39658;51.090;-1.786;2022-08-06T02:50:41;102177.88;;;10.10;70.21
53262;BME280;39658;51.090;-1.786;2022-08-06T02:53:10;102181.50;;;10.09;71.08
53262;BME280;39658;51.090;-1.786;2022-08-06T02:55:42;102181.84;;;10.04;71.09
53262;BME280;39658;51.090;-1.786;2022-08-06T02:58:17;102184.09;;;9.98;70.93
53262;BME280;39658;51.090;-1.786;2022-08-06T03:00:48;102186.75;;;9.98;70.98
53262;BME280;39658;51.090;-1.786;2022-08-06T03:03:19;102186.19;;;10.05;71.14
53262;BME280;39658;51.090;-1.786;2022-08-06T03:05:48;102188.44;;;9.99;71.04
53262;BME280;39658;51.090;-1.786;2022-08-06T03:08:18;102195.41;;;9.89;71.73
53262;BME280;39658;51.090;-1.786;2022-08-06T03:10:47;102189.66;;;9.71;72.46
53262;BME280;39658;51.090;-1.786;2022-08-06T03:13:17;102189.91;;;9.55;73.34
53262;BME280;39658;51.090;-1.786;2022-08-06T03:15:45;102192.06;;;9.50;73.65
53262;BME280;39658;51.090;-1.786;2022-08-06T03:18:13;102189.13;;;9.42;73.66
53262;BME280;39658;51.090;-1.786;2022-08-06T03:20:43;102191.88;;;9.40;73.67
53262;BME280;39658;51.090;-1.786;2022-08-06T03:23:11;102193.19;;;9.35;73.83
53262;BME280;39658;51.090;-1.786;2022-08-06T03:25:39;102197.34;;;9.26;74.38
53262;BME280;39658;51.090;-1.786;2022-08-06T03:28:07;102204.47;;;9.26;74.53
53262;BME280;39658;51.090;-1.786;2022-08-06T03:30:39;102209.25;;;9.08;74.96
53262;BME280;39658;51.090;-1.786;2022-08-06T03:33:08;102204.06;;;9.06;75.22
53262;BME280;39658;51.090;-1.786;2022-08-06T03:35:36;102205.66;;;8.96;75.92
53262;BME280;39658;51.090;-1.786;2022-08-06T03:38:03;102208.31;;;8.96;75.77
53262;BME280;39658;51.090;-1.786;2022-08-06T03:40:33;102205.38;;;8.88;76.45
53262;BME280;39658;51.090;-1.786;2022-08-06T03:43:00;102215.34;;;8.85;76.16
53262;BME280;39658;51.090;-1.786;2022-08-06T03:45:28;102213.44;;;8.87;76.05
53262;BME280;39658;51.090;-1.786;2022-08-06T03:48:01;102216.94;;;8.87;76.20
53262;BME280;39658;51.090;-1.786;2022-08-06T03:50:32;102216.19;;;8.85;76.32
53262;BME280;39658;51.090;-1.786;2022-08-06T03:53:01;102218.41;;;8.78;76.23
53262;BME280;39658;51.090;-1.786;2022-08-06T03:55:32;102208.94;;;8.74;76.31
53262;BME280;39658;51.090;-1.786;2022-08-06T03:58:02;102210.44;;;8.78;76.19
53262;BME280;39658;51.090;-1.786;2022-08-06T04:00:38;102204.00;;;8.83;76.16
53262;BME280;39658;51.090;-1.786;2022-08-06T04:03:08;102203.31;;;8.79;76.17
53262;BME280;39658;51.090;-1.786;2022-08-06T04:05:36;102200.50;;;8.82;76.14
53262;BME280;39658;51.090;-1.786;2022-08-06T04:08:04;102204.28;;;8.78;76.58
53262;BME280;39658;51.090;-1.786;2022-08-06T04:10:33;102209.16;;;8.71;76.94
53262;BME280;39658;51.090;-1.786;2022-08-06T04:13:05;102198.13;;;8.77;76.77
53262;BME280;39658;51.090;-1.786;2022-08-06T04:15:33;102198.47;;;8.86;76.44
53262;BME280;39658;51.090;-1.786;2022-08-06T04:18:00;102193.13;;;8.98;75.79
53262;BME280;39658;51.090;-1.786;2022-08-06T04:20:30;102204.38;;;9.02;75.77
53262;BME280;39658;51.090;-1.786;2022-08-06T04:22:58;102201.38;;;9.32;73.80
53262;BME280;39658;51.090;-1.786;2022-08-06T04:25:27;102199.56;;;9.32;73.78
53262;BME280;39658;51.090;-1.786;2022-08-06T04:27:55;102202.16;;;9.21;73.51
53262;BME280;39658;51.090;-1.786;2022-08-06T04:30:24;102204.28;;;9.03;74.27
53262;BME280;39658;51.090;-1.786;2022-08-06T04:32:52;102215.34;;;8.85;75.42
53262;BME280;39658;51.090;-1.786;2022-08-06T04:35:20;102215.44;;;8.70;75.83
53262;BME280;39658;51.090;-1.786;2022-08-06T04:37:49;102218.09;;;8.70;76.06
53262;BME280;39658;51.090;-1.786;2022-08-06T04:40:16;102216.91;;;8.62;76.16
53262;BME280;39658;51.090;-1.786;2022-08-06T04:42:43;102218.81;;;8.72;75.44
53262;BME280;39658;51.090;-1.786;2022-08-06T04:45:11;102220.84;;;8.56;76.19
53262;BME280;39658;51.090;-1.786;2022-08-06T04:47:39;102208.75;;;8.52;76.72
53262;BME280;39658;51.090;-1.786;2022-08-06T04:50:06;102217.88;;;8.73;75.92
53262;BME280;39658;51.090;-1.786;2022-08-06T04:52:33;102216.06;;;8.99;74.91
53262;BME280;39658;51.090;-1.786;2022-08-06T04:55:02;102227.88;;;8.83;75.13
53262;BME280;39658;51.090;-1.786;2022-08-06T04:57:29;102227.63;;;8.73;76.03
53262;BME280;39658;51.090;-1.786;2022-08-06T04:59:56;102212.56;;;8.73;76.53
53262;BME280;39658;51.090;-1.786;2022-08-06T05:02:22;102212.25;;;8.65;76.54
53262;BME280;39658;51.090;-1.786;2022-08-06T05:04:49;102221.59;;;8.71;76.54
53262;BME280;39658;51.090;-1.786;2022-08-06T05:07:23;102218.09;;;8.70;76.70
53262;BME280;39658;51.090;-1.786;2022-08-06T05:09:50;102221.28;;;8.63;76.93
53262;BME280;39658;51.090;-1.786;2022-08-06T05:12:24;102222.34;;;8.60;77.41
53262;BME280;39658;51.090;-1.786;2022-08-06T05:14:54;102228.81;;;8.56;77.42
53262;BME280;39658;51.090;-1.786;2022-08-06T05:17:24;102230.59;;;8.56;77.61
53262;BME280;39658;51.090;-1.786;2022-08-06T05:19:56;102229.97;;;8.65;77.63
53262;BME280;39658;51.090;-1.786;2022-08-06T05:22:24;102241.53;;;8.76;77.33
53262;BME280;39658;51.090;-1.786;2022-08-06T05:24:53;102243.47;;;8.87;77.73
53262;BME280;39658;51.090;-1.786;2022-08-06T05:27:21;102249.41;;;9.03;77.31
53262;BME280;39658;51.090;-1.786;2022-08-06T05:29:48;102243.88;;;9.32;76.56
53262;BME280;39658;51.090;-1.786;2022-08-06T05:32:15;102249.38;;;9.78;74.65
53262;BME280;39658;51.090;-1.786;2022-08-06T05:34:45;102251.59;;;10.67;71.04
53262;BME280;39658;51.090;-1.786;2022-08-06T05:37:12;102255.91;;;11.03;69.53
53262;BME280;39658;51.090;-1.786;2022-08-06T05:39:39;102261.47;;;11.00;70.67
53262;BME280;39658;51.090;-1.786;2022-08-06T05:42:06;102262.66;;;10.85;70.96
53262;BME280;39658;51.090;-1.786;2022-08-06T05:44:34;102266.47;;;10.70;71.32
53262;BME280;39658;51.090;-1.786;2022-08-06T05:47:05;102274.72;;;10.66;72.06
53262;BME280;39658;51.090;-1.786;2022-08-06T05:49:37;102274.25;;;10.73;72.19
53262;BME280;39658;51.090;-1.786;2022-08-06T05:52:09;102269.41;;;10.78;71.39
53262;BME280;39658;51.090;-1.786;2022-08-06T05:54:40;102269.06;;;10.82;71.65
53262;BME280;39658;51.090;-1.786;2022-08-06T05:57:14;102269.09;;;10.93;71.69
53262;BME280;39658;51.090;-1.786;2022-08-06T05:59:46;102280.13;;;11.00;71.86
53262;BME280;39658;51.090;-1.786;2022-08-06T06:02:15;102281.69;;;11.14;71.33
53262;BME280;39658;51.090;-1.786;2022-08-06T06:04:43;102292.50;;;11.23;71.03
53262;BME280;39658;51.090;-1.786;2022-08-06T06:07:12;102278.81;;;11.28;69.27
53262;BME280;39658;51.090;-1.786;2022-08-06T06:09:40;102280.03;;;11.24;70.14
53262;BME280;39658;51.090;-1.786;2022-08-06T06:12:08;102276.56;;;12.00;67.87
53262;BME280;39658;51.090;-1.786;2022-08-06T06:14:37;102269.78;;;14.51;58.99
53262;BME280;39658;51.090;-1.786;2022-08-06T06:17:27;102274.91;;;15.93;54.82
53262;BME280;39658;51.090;-1.786;2022-08-06T06:20:03;102273.97;;;16.91;51.58
53262;BME280;39658;51.090;-1.786;2022-08-06T06:22:38;102272.38;;;17.06;51.62
53262;BME280;39658;51.090;-1.786;2022-08-06T06:25:09;102290.53;;;18.23;48.13
53262;BME280;39658;51.090;-1.786;2022-08-06T06:27:44;102286.72;;;18.82;46.44
53262;BME280;39658;51.090;-1.786;2022-08-06T06:30:16;102286.00;;;19.60;43.72
53262;BME280;39658;51.090;-1.786;2022-08-06T06:32:52;102284.56;;;20.11;42.59
53262;BME280;39658;51.090;-1.786;2022-08-06T06:35:31;102279.34;;;20.32;41.74
53262;BME280;39658;51.090;-1.786;2022-08-06T06:38:07;102283.94;;;21.07;40.58
53262;BME280;39658;51.090;-1.786;2022-08-06T06:40:45;102281.91;;;21.53;39.04
53262;BME280;39658;51.090;-1.786;2022-08-06T06:43:18;102282.91;;;20.93;40.83
53262;BME280;39658;51.090;-1.786;2022-08-06T06:45:54;102290.00;;;20.94;40.11
53262;BME280;39658;51.090;-1.786;2022-08-06T06:48:26;102284.84;;;20.39;41.70
53262;BME280;39658;51.090;-1.786;2022-08-06T06:51:01;102288.69;;;20.53;41.94
53262;BME280;39658;51.090;-1.786;2022-08-06T06:53:32;102283.66;;;21.02;40.71
53262;BME280;39658;51.090;-1.786;2022-08-06T06:56:01;102293.63;;;20.87;40.62
53262;BME280;39658;51.090;-1.786;2022-08-06T06:58:34;102293.03;;;21.29;40.03
53262;BME280;39658;51.090;-1.786;2022-08-06T07:01:04;102292.78;;;20.86;40.88
53262;BME280;39658;51.090;-1.786;2022-08-06T07:03:34;102290.13;;;20.78;40.68
53262;BME280;39658;51.090;-1.786;2022-08-06T07:06:04;102289.06;;;21.61;39.20
53262;BME280;39658;51.090;-1.786;2022-08-06T07:08:35;102294.13;;;21.49;40.17
53262;BME280;39658;51.090;-1.786;2022-08-06T07:11:07;102293.22;;;22.08;38.32
53262;BME280;39658;51.090;-1.786;2022-08-06T07:13:36;102291.94;;;22.25;38.28
53262;BME280;39658;51.090;-1.786;2022-08-06T07:16:04;102290.94;;;23.31;36.51
53262;BME280;39658;51.090;-1.786;2022-08-06T07:18:34;102293.50;;;21.47;39.22
53262;BME280;39658;51.090;-1.786;2022-08-06T07:21:02;102300.91;;;21.89;39.24
53262;BME280;39658;51.090;-1.786;2022-08-06T07:23:29;102287.56;;;21.14;40.95
53262;BME280;39658;51.090;-1.786;2022-08-06T07:25:58;102282.78;;;22.26;39.45
53262;BME280;39658;51.090;-1.786;2022-08-06T07:28:26;102279.47;;;21.73;39.63
53262;BME280;39658;51.090;-1.786;2022-08-06T07:30:54;102288.38;;;22.89;37.97
53262;BME280;39658;51.090;-1.786;2022-08-06T07:33:21;102290.13;;;23.03;37.58
53262;BME280;39658;51.090;-1.786;2022-08-06T07:35:51;102292.63;;;22.76;38.04
53262;BME280;39658;51.090;-1.786;2022-08-06T07:38:20;102286.72;;;23.22;37.61
53262;BME280;39658;51.090;-1.786;2022-08-06T07:40:51;102294.03;;;22.72;38.65
53262;BME280;39658;51.090;-1.786;2022-08-06T07:43:21;102300.56;;;23.34;37.18
53262;BME280;39658;51.090;-1.786;2022-08-06T07:45:51;102304.84;;;23.97;35.94
53262;BME280;39658;51.090;-1.786;2022-08-06T07:48:22;102311.16;;;23.57;37.25
53262;BME280;39658;51.090;-1.786;2022-08-06T07:50:52;102305.34;;;22.97;38.08
53262;BME280;39658;51.090;-1.786;2022-08-06T07:53:21;102307.66;;;22.51;38.84
53262;BME280;39658;51.090;-1.786;2022-08-06T07:55:48;102303.16;;;23.14;37.31
53262;BME280;39658;51.090;-1.786;2022-08-06T07:58:15;102283.44;;;24.55;35.34
53262;BME280;39658;51.090;-1.786;2022-08-06T08:00:43;102293.94;;;23.43;37.88
53262;BME280;39658;51.090;-1.786;2022-08-06T08:03:13;102293.28;;;24.69;35.43
53262;BME280;39658;51.090;-1.786;2022-08-06T08:06:00;102299.31;;;24.32;34.42
53262;BME280;39658;51.090;-1.786;2022-08-06T08:08:49;102302.44;;;23.33;37.22
53262;BME280;39658;51.090;-1.786;2022-08-06T08:11:17;102310.19;;;23.02;36.73
53262;BME280;39658;51.090;-1.786;2022-08-06T08:13:44;102311.94;;;23.85;35.02
53262;BME280;39658;51.090;-1.786;2022-08-06T08:16:13;102312.69;;;23.66;34.95
53262;BME280;39658;51.090;-1.786;2022-08-06T08:18:41;102307.94;;;23.47;36.24
53262;BME280;39658;51.090;-1.786;2022-08-06T08:21:10;102299.97;;;24.74;34.06
53262;BME280;39658;51.090;-1.786;2022-08-06T08:23:39;102308.34;;;24.65;32.89
53262;BME280;39658;51.090;-1.786;2022-08-06T08:26:07;102298.28;;;24.73;33.45
53262;BME280;39658;51.090;-1.786;2022-08-06T08:28:34;102300.44;;;25.75;31.21
53262;BME280;39658;51.090;-1.786;2022-08-06T08:31:00;102303.22;;;26.06;30.16
53262;BME280;39658;51.090;-1.786;2022-08-06T08:33:29;102303.44;;;26.68;29.00
53262;BME280;39658;51.090;-1.786;2022-08-06T08:35:56;102293.69;;;26.53;28.24
53262;BME280;39658;51.090;-1.786;2022-08-06T08:38:24;102293.91;;;25.82;30.44
53262;BME280;39658;51.090;-1.786;2022-08-06T08:40:54;102296.66;;;27.20;27.76
53262;BME280;39658;51.090;-1.786;2022-08-06T08:43:25;102297.38;;;27.34;27.70
53262;BME280;39658;51.090;-1.786;2022-08-06T08:45:57;102295.66;;;25.57;29.63
53262;BME280;39658;51.090;-1.786;2022-08-06T08:48:25;102306.06;;;27.61;27.25
53262;BME280;39658;51.090;-1.786;2022-08-06T08:50:56;102299.69;;;27.12;27.96
53262;BME280;39658;51.090;-1.786;2022-08-06T08:53:29;102304.84;;;27.20;28.28
53262;BME280;39658;51.090;-1.786;2022-08-06T08:56:00;102300.78;;;25.20;29.79
53262;BME280;39658;51.090;-1.786;2022-08-06T08:58:28;102301.16;;;26.65;28.69
53262;BME280;39658;51.090;-1.786;2022-08-06T09:00:57;102302.06;;;27.27;27.24
53262;BME280;39658;51.090;-1.786;2022-08-06T09:03:24;102297.34;;;27.15;27.34
53262;BME280;39658;51.090;-1.786;2022-08-06T09:05:51;102296.31;;;27.35;26.73
53262;BME280;39658;51.090;-1.786;2022-08-06T09:08:18;102297.56;;;28.17;25.93
53262;BME280;39658;51.090;-1.786;2022-08-06T09:10:47;102298.03;;;26.86;27.01
53262;BME280;39658;51.090;-1.786;2022-08-06T09:13:14;102301.47;;;27.80;26.28
53262;BME280;39658;51.090;-1.786;2022-08-06T09:15:40;102305.88;;;28.40;25.51
53262;BME280;39658;51.090;-1.786;2022-08-06T09:18:07;102301.75;;;27.16;25.91
53262;BME280;39658;51.090;-1.786;2022-08-06T09:20:35;102305.63;;;27.82;26.10
53262;BME280;39658;51.090;-1.786;2022-08-06T09:23:03;102298.22;;;28.96;24.84
53262;BME280;39658;51.090;-1.786;2022-08-06T09:25:41;102296.50;;;28.18;25.11
53262;BME280;39658;51.090;-1.786;2022-08-06T09:28:11;102306.72;;;26.51;26.97
53262;BME280;39658;51.090;-1.786;2022-08-06T09:30:38;102306.78;;;26.70;26.26
53262;BME280;39658;51.090;-1.786;2022-08-06T09:33:14;102296.19;;;29.03;23.50
53262;BME280;39658;51.090;-1.786;2022-08-06T09:35:41;102297.94;;;27.17;26.06
53262;BME280;39658;51.090;-1.786;2022-08-06T09:38:08;102299.88;;;26.04;27.76
53262;BME280;39658;51.090;-1.786;2022-08-06T09:40:35;102299.50;;;27.68;24.65
53262;BME280;39658;51.090;-1.786;2022-08-06T09:43:02;102308.06;;;27.90;24.47
53262;BME280;39658;51.090;-1.786;2022-08-06T09:45:30;102305.41;;;27.84;24.20
53262;BME280;39658;51.090;-1.786;2022-08-06T09:48:02;102311.38;;;27.62;24.04
53262;BME280;39658;51.090;-1.786;2022-08-06T09:50:38;102313.09;;;26.70;25.67
53262;BME280;39658;51.090;-1.786;2022-08-06T09:53:05;102312.44;;;28.09;24.17
53262;BME280;39658;51.090;-1.786;2022-08-06T09:55:32;102309.28;;;27.39;25.62
53262;BME280;39658;51.090;-1.786;2022-08-06T09:57:59;102306.63;;;28.18;24.66
53262;BME280;39658;51.090;-1.786;2022-08-06T10:00:27;102304.09;;;27.13;25.16
53262;BME280;39658;51.090;-1.786;2022-08-06T10:02:57;102293.66;;;27.28;24.90
53262;BME280;39658;51.090;-1.786;2022-08-06T10:05:24;102303.63;;;28.07;25.08
53262;BME280;39658;51.090;-1.786;2022-08-06T10:08:08;102297.22;;;28.55;23.05
53262;BME280;39658;51.090;-1.786;2022-08-06T10:10:43;102307.69;;;27.50;23.68
53262;BME280;39658;51.090;-1.786;2022-08-06T10:13:13;102297.09;;;28.20;22.96
53262;BME280;39658;51.090;-1.786;2022-08-06T10:15:41;102295.53;;;28.43;22.80
53262;BME280;39658;51.090;-1.786;2022-08-06T10:18:18;102297.22;;;28.79;22.83
53262;BME280;39658;51.090;-1.786;2022-08-06T10:21:03;102297.50;;;29.12;21.02
53262;BME280;39658;51.090;-1.786;2022-08-06T10:23:34;102294.50;;;29.14;21.73
53262;BME280;39658;51.090;-1.786;2022-08-06T10:26:03;102293.59;;;29.60;20.25
53262;BME280;39658;51.090;-1.786;2022-08-06T10:28:33;102292.50;;;30.13;20.77
53262;BME280;39658;51.090;-1.786;2022-08-06T10:31:02;102279.09;;;30.33;20.29
53262;BME280;39658;51.090;-1.786;2022-08-06T10:33:33;102286.47;;;29.59;20.52
53262;BME280;39658;51.090;-1.786;2022-08-06T10:36:03;102295.84;;;28.99;22.29
53262;BME280;39658;51.090;-1.786;2022-08-06T10:38:33;102301.56;;;28.86;21.81
53262;BME280;39658;51.090;-1.786;2022-08-06T10:41:03;102283.16;;;29.22;21.94
53262;BME280;39658;51.090;-1.786;2022-08-06T10:43:34;102279.53;;;30.59;21.23
53262;BME280;39658;51.090;-1.786;2022-08-06T10:46:04;102289.44;;;30.93;20.08
53262;BME280;39658;51.090;-1.786;2022-08-06T10:48:33;102281.75;;;30.00;20.41
53262;BME280;39658;51.090;-1.786;2022-08-06T10:51:01;102277.81;;;28.68;21.80
53262;BME280;39658;51.090;-1.786;2022-08-06T10:53:30;102277.09;;;28.20;21.79
53262;BME280;39658;51.090;-1.786;2022-08-06T10:56:00;102274.41;;;29.60;20.24
53262;BME280;39658;51.090;-1.786;2022-08-06T10:58:29;102279.22;;;30.72;19.65
53262;BME280;39658;51.090;-1.786;2022-08-06T11:00:56;102276.22;;;31.29;19.55
53262;BME280;39658;51.090;-1.786;2022-08-06T11:03:30;102270.09;;;29.24;20.90
53262;BME280;39658;51.090;-1.786;2022-08-06T11:06:11;102271.59;;;29.83;20.63
53262;BME280;39658;51.090;-1.786;2022-08-06T11:08:51;102269.16;;;30.61;19.84
53262;BME280;39658;51.090;-1.786;2022-08-06T11:11:30;102267.94;;;30.23;19.74
53262;BME280;39658;51.090;-1.786;2022-08-06T11:14:03;102268.19;;;29.01;21.38
53262;BME280;39658;51.090;-1.786;2022-08-06T11:16:32;102267.09;;;29.94;20.55
53262;BME280;39658;51.090;-1.786;2022-08-06T11:19:00;102256.72;;;28.46;21.82
53262;BME280;39658;51.090;-1.786;2022-08-06T11:21:41;102265.84;;;27.98;22.73
53262;BME280;39658;51.090;-1.786;2022-08-06T11:24:08;102257.13;;;28.96;21.27
53262;BME280;39658;51.090;-1.786;2022-08-06T11:26:36;102255.25;;;28.31;22.18
53262;BME280;39658;51.090;-1.786;2022-08-06T11:29:04;102258.25;;;28.42;21.65
53262;BME280;39658;51.090;-1.786;2022-08-06T11:31:40;102261.13;;;28.58;21.74
53262;BME280;39658;51.090;-1.786;2022-08-06T11:34:11;102255.28;;;29.93;21.07
53262;BME280;39658;51.090;-1.786;2022-08-06T11:36:59;102252.03;;;29.40;20.83
53262;BME280;39658;51.090;-1.786;2022-08-06T11:39:26;102250.72;;;30.28;20.69
53262;BME280;39658;51.090;-1.786;2022-08-06T11:41:56;102242.91;;;30.19;20.36
53262;BME280;39658;51.090;-1.786;2022-08-06T11:44:28;102249.41;;;31.19;19.58
53262;BME280;39658;51.090;-1.786;2022-08-06T11:47:05;102239.66;;;32.04;18.69
53262;BME280;39658;51.090;-1.786;2022-08-06T11:49:38;102241.63;;;29.82;20.71
53262;BME280;39658;51.090;-1.786;2022-08-06T11:52:07;102233.81;;;29.22;20.36
53262;BME280;39658;51.090;-1.786;2022-08-06T11:54:35;102230.81;;;28.18;21.67
53262;BME280;39658;51.090;-1.786;2022-08-06T11:57:26;102223.81;;;29.27;21.07
53262;BME280;39658;51.090;-1.786;2022-08-06T12:00:06;102226.09;;;31.05;19.79
53262;BME280;39658;51.090;-1.786;2022-08-06T12:02:56;102223.66;;;31.52;19.17
53262;BME280;39658;51.090;-1.786;2022-08-06T12:05:42;102225.25;;;30.82;19.84
53262;BME280;39658;51.090;-1.786;2022-08-06T12:08:21;102219.34;;;30.57;19.32
53262;BME280;39658;51.090;-1.786;2022-08-06T12:11:27;102217.28;;;28.82;22.75
53262;BME280;39658;51.090;-1.786;2022-08-06T12:13:56;102228.81;;;29.71;23.15
53262;BME280;39658;51.090;-1.786;2022-08-06T12:16:33;102224.03;;;30.95;20.20
53262;BME280;39658;51.090;-1.786;2022-08-06T12:19:01;102222.78;;;30.64;19.48
53262;BME280;39658;51.090;-1.786;2022-08-06T12:21:29;102219.81;;;31.26;19.90
53262;BME280;39658;51.090;-1.786;2022-08-06T12:23:57;102211.13;;;31.88;19.02
53262;BME280;39658;51.090;-1.786;2022-08-06T12:26:30;102210.69;;;31.04;19.49
53262;BME280;39658;51.090;-1.786;2022-08-06T12:29:01;102217.78;;;31.00;19.98
53262;BME280;39658;51.090;-1.786;2022-08-06T12:31:31;102216.75;;;30.84;20.06
53262;BME280;39658;51.090;-1.786;2022-08-06T12:33:58;102206.75;;;31.16;19.86
53262;BME280;39658;51.090;-1.786;2022-08-06T12:36:27;102205.38;;;30.97;20.06
53262;BME280;39658;51.090;-1.786;2022-08-06T12:38:57;102205.94;;;32.24;19.47
53262;BME280;39658;51.090;-1.786;2022-08-06T12:41:38;102203.16;;;32.51;17.20
53262;BME280;39658;51.090;-1.786;2022-08-06T12:44:10;102196.78;;;32.13;18.38
53262;BME280;39658;51.090;-1.786;2022-08-06T12:46:37;102203.38;;;29.47;20.39
53262;BME280;39658;51.090;-1.786;2022-08-06T12:49:04;102199.53;;;30.38;20.10
53262;BME280;39658;51.090;-1.786;2022-08-06T12:51:32;102189.75;;;31.03;18.89
53262;BME280;39658;51.090;-1.786;2022-08-06T12:54:03;102192.00;;;31.71;19.00
53262;BME280;39658;51.090;-1.786;2022-08-06T12:56:32;102198.88;;;30.31;19.48
53262;BME280;39658;51.090;-1.786;2022-08-06T12:59:02;102177.88;;;30.42;20.29